Time;durP1;ratioP1;P1;durP2;ratioP2;P2;SDS_P1;SDS_P2;PMS_P1;PMS_P2;Temp;Humidity;BMP_temperature;BMP_pressure;BME280_temperature;BME280_humidity;BME280_pressure;Samples;Min_cycle;Max_cycle;Signal;HPM_P1;HPM_P2
2024/02/28 00:00:11;;;;;;;7.10;5.22;;;15.10;92.90;;;;;;5073332;28;20027;-45
2024/02/28 00:02:37;;;;;;;6.57;5.25;;;15.00;93.00;;;;;;5073653;28;20064;-44
2024/02/28 00:05:02;;;;;;;6.10;4.65;;;15.00;93.10;;;;;;5073501;28;20110;-45
2024/02/28 00:07:28;;;;;;;6.50;5.03;;;14.90;93.50;;;;;;5073316;28;20495;-45
2024/02/28 00:09:57;;;;;;;8.00;4.90;;;14.90;93.30;;;;;;5073099;28;20558;-45
2024/02/28 00:12:25;;;;;;;7.30;5.40;;;14.80;93.30;;;;;;5073611;28;20033;-45
2024/02/28 00:14:51;;;;;;;8.38;5.35;;;14.70;93.40;;;;;;5073322;28;20031;-44
2024/02/28 00:17:16;;;;;;;7.93;5.35;;;14.70;93.50;;;;;;5073119;28;20028;-45
2024/02/28 00:19:42;;;;;;;6.63;5.10;;;14.60;93.60;;;;;;5073040;28;20112;-45
2024/02/28 00:22:09;;;;;;;6.03;4.43;;;14.50;93.70;;;;;;5071922;28;20027;-45
2024/02/28 00:24:34;;;;;;;6.88;5.07;;;14.50;93.80;;;;;;5073028;28;20036;-45
2024/02/28 00:27:00;;;;;;;6.47;5.25;;;14.50;93.90;;;;;;5072833;28;20028;-44
2024/02/28 00:29:26;;;;;;;7.97;5.57;;;14.40;94.00;;;;;;5072846;28;20032;-45
2024/02/28 00:31:52;;;;;;;6.55;5.50;;;14.30;94.00;;;;;;5073009;28;20025;-44
2024/02/28 00:34:17;;;;;;;6.50;5.28;;;14.30;94.10;;;;;;5072532;28;20040;-44
2024/02/28 00:36:43;;;;;;;7.55;5.30;;;14.20;94.20;;;;;;5072436;28;20052;-44
2024/02/28 00:39:10;;;;;;;6.80;5.13;;;14.20;94.30;;;;;;5072515;28;20027;-45
2024/02/28 00:41:35;;;;;;;7.65;5.18;;;14.10;94.30;;;;;;5073127;28;20372;-45
2024/02/28 00:44:03;;;;;;;6.85;5.57;;;14.10;94.40;;;;;;5073017;28;20035;-45
2024/02/28 00:46:28;;;;;;;6.60;5.22;;;14.00;94.50;;;;;;5072769;28;20028;-45
2024/02/28 00:48:54;;;;;;;7.25;5.15;;;14.00;94.50;;;;;;5072581;28;20028;-44
2024/02/28 00:51:20;;;;;;;7.22;5.32;;;14.00;94.60;;;;;;5072434;28;20060;-45
2024/02/28 00:53:45;;;;;;;7.28;5.53;;;13.90;94.70;;;;;;5072507;28;20463;-44
2024/02/28 00:56:11;;;;;;;6.65;5.10;;;13.80;94.70;;;;;;5072459;28;20016;-45
2024/02/28 00:58:38;;;;;;;6.88;5.55;;;13.80;94.80;;;;;;5072214;28;20378;-45
2024/02/28 01:01:04;;;;;;;8.13;5.50;;;13.80;94.90;;;;;;5072138;28;20025;-45
2024/02/28 01:03:29;;;;;;;6.45;5.13;;;13.70;94.90;;;;;;5072316;28;20096;-46
2024/02/28 01:05:55;;;;;;;6.32;5.10;;;13.70;95.00;;;;;;5072178;28;20056;-44
2024/02/28 01:08:21;;;;;;;8.32;5.75;;;13.60;95.00;;;;;;5071973;28;20032;-45
2024/02/28 01:10:46;;;;;;;8.07;5.70;;;13.60;95.10;;;;;;5072009;28;20470;-45
2024/02/28 01:13:12;;;;;;;7.10;5.20;;;13.60;95.20;;;;;;5072071;28;20035;-45
2024/02/28 01:15:41;;;;;;;6.45;5.25;;;13.50;95.20;;;;;;5072338;28;20104;-45
2024/02/28 01:18:07;;;;;;;7.30;5.32;;;13.50;95.30;;;;;;5071841;28;20016;-45
2024/02/28 01:20:33;;;;;;;7.88;5.70;;;13.50;95.30;;;;;;5071744;28;20052;-45
2024/02/28 01:22:58;;;;;;;6.75;5.28;;;13.40;95.40;;;;;;5072018;28;20037;-45
2024/02/28 01:25:24;;;;;;;7.28;5.60;;;13.40;95.40;;;;;;5071967;28;20536;-45
2024/02/28 01:27:50;;;;;;;5.85;4.88;;;13.40;95.50;;;;;;5070960;28;20037;-45
2024/02/28 01:30:15;;;;;;;7.57;5.13;;;13.30;95.50;;;;;;5071519;28;20031;-43
2024/02/28 01:32:41;;;;;;;6.45;5.20;;;13.30;95.60;;;;;;5071881;28;20032;-44
2024/02/28 01:35:09;;;;;;;7.05;5.03;;;13.30;95.60;;;;;;5071661;28;20037;-44
2024/02/28 01:37:34;;;;;;;7.28;5.47;;;13.20;95.60;;;;;;5071360;28;20017;-46
2024/02/28 01:40:00;;;;;;;7.72;5.90;;;13.30;95.70;;;;;;5071388;28;20031;-43
2024/02/28 01:42:26;;;;;;;6.93;5.45;;;13.20;95.70;;;;;;5071577;28;20096;-43
2024/02/28 01:44:51;;;;;;;6.82;5.63;;;13.20;95.80;;;;;;5070726;28;20023;-45
2024/02/28 01:47:17;;;;;;;7.00;5.50;;;13.20;95.90;;;;;;5069944;28;20060;-45
2024/02/28 01:49:46;;;;;;;6.93;5.68;;;13.10;95.90;;;;;;5071259;28;20036;-45
2024/02/28 01:52:12;;;;;;;9.45;6.25;;;13.10;95.90;;;;;;5071367;28;20028;-45
2024/02/28 01:54:39;;;;;;;7.57;5.82;;;13.10;96.00;;;;;;5071411;28;20036;-45
2024/02/28 01:57:06;;;;;;;6.97;5.03;;;13.10;96.00;;;;;;5071189;28;20352;-45
2024/02/28 01:59:33;;;;;;;7.20;5.75;;;13.00;96.00;;;;;;5071254;28;20055;-45
2024/02/28 02:01:59;;;;;;;7.28;5.35;;;13.00;96.10;;;;;;5071764;28;20033;-45
2024/02/28 02:04:25;;;;;;;7.97;5.55;;;13.00;96.10;;;;;;5071400;28;20376;-45
2024/02/28 02:06:54;;;;;;;6.22;5.05;;;13.00;96.20;;;;;;5071398;28;20432;-45
2024/02/28 02:09:19;;;;;;;7.18;5.32;;;12.90;96.20;;;;;;5070917;28;20062;-46
2024/02/28 02:11:45;;;;;;;8.50;5.47;;;12.90;96.20;;;;;;5071079;28;20060;-45
2024/02/28 02:14:10;;;;;;;6.97;5.47;;;12.90;96.30;;;;;;5071001;28;20079;-43
2024/02/28 02:16:36;;;;;;;7.80;5.40;;;12.90;96.30;;;;;;5071139;28;20025;-45
2024/02/28 02:19:02;;;;;;;5.90;5.00;;;12.90;96.40;;;;;;5070700;28;20025;-45
2024/02/28 02:21:34;;;;;;;7.28;5.22;;;12.80;96.40;;;;;;5071185;28;20474;-45
2024/02/28 02:24:00;;;;;;;6.18;5.07;;;12.80;96.40;;;;;;5071079;28;20502;-45
2024/02/28 02:26:25;;;;;;;6.93;5.30;;;12.80;96.40;;;;;;5070233;28;20055;-44
2024/02/28 02:28:51;;;;;;;7.10;5.20;;;12.80;96.50;;;;;;5070669;28;20410;-44
2024/02/28 02:31:17;;;;;;;6.25;5.47;;;12.80;96.50;;;;;;5069633;28;20119;-45
2024/02/28 02:33:42;;;;;;;7.38;5.72;;;12.80;96.60;;;;;;5070822;28;20058;-45
2024/02/28 02:36:08;;;;;;;6.22;5.00;;;12.70;96.60;;;;;;5070726;28;20021;-45
2024/02/28 02:38:34;;;;;;;7.63;5.20;;;12.70;96.60;;;;;;5069353;28;20021;-45
2024/02/28 02:40:59;;;;;;;6.40;4.95;;;12.70;96.70;;;;;;5070623;28;20025;-45
2024/02/28 02:43:25;;;;;;;5.95;4.97;;;12.70;96.70;;;;;;5070950;28;20063;-45
2024/02/28 02:45:51;;;;;;;7.13;5.22;;;12.70;96.70;;;;;;5070847;28;20067;-45
2024/02/28 02:48:16;;;;;;;6.60;5.28;;;12.70;96.70;;;;;;5070631;28;20028;-45
2024/02/28 02:50:42;;;;;;;7.47;5.40;;;12.70;96.80;;;;;;5070458;28;20393;-44
2024/02/28 02:53:09;;;;;;;8.45;5.60;;;12.60;96.80;;;;;;5070820;28;20024;-44
2024/02/28 02:55:35;;;;;;;7.78;5.63;;;12.60;96.80;;;;;;5070847;28;20023;-45
2024/02/28 02:58:02;;;;;;;7.03;5.47;;;12.60;96.80;;;;;;5074488;28;20024;-45
2024/02/28 03:00:28;;;;;;;6.70;5.07;;;12.60;96.90;;;;;;5074530;28;20607;-44
2024/02/28 03:02:54;;;;;;;6.35;5.35;;;12.60;96.90;;;;;;5074666;28;20099;-45
2024/02/28 03:05:19;;;;;;;7.47;5.03;;;12.60;96.90;;;;;;5073175;28;20398;-45
2024/02/28 03:07:45;;;;;;;7.53;5.45;;;12.60;96.90;;;;;;5073043;28;20379;-44
2024/02/28 03:10:10;;;;;;;7.68;5.25;;;12.50;96.90;;;;;;5074391;28;20028;-45
2024/02/28 03:12:36;;;;;;;7.50;5.47;;;12.50;96.90;;;;;;5074539;28;20023;-45
2024/02/28 03:15:03;;;;;;;7.93;5.60;;;12.50;97.00;;;;;;5074312;28;20028;-45
2024/02/28 03:17:29;;;;;;;6.90;5.65;;;12.50;97.00;;;;;;5074248;28;20103;-45
2024/02/28 03:19:54;;;;;;;6.57;5.15;;;12.50;97.10;;;;;;5074092;28;20062;-45
2024/02/28 03:22:20;;;;;;;7.15;5.47;;;12.50;97.10;;;;;;5074368;28;20025;-45
2024/02/28 03:24:45;;;;;;;6.93;5.20;;;12.40;97.10;;;;;;5074350;28;20032;-44
2024/02/28 03:27:11;;;;;;;6.50;5.40;;;12.40;97.10;;;;;;5074205;28;20028;-42
2024/02/28 03:29:37;;;;;;;6.82;5.20;;;12.40;97.10;;;;;;5074125;28;20475;-45
2024/02/28 03:32:03;;;;;;;7.97;5.75;;;12.40;97.20;;;;;;5074306;28;20754;-45
2024/02/28 03:34:29;;;;;;;7.70;5.60;;;12.40;97.20;;;;;;5073884;28;20024;-44
2024/02/28 03:36:55;;;;;;;7.03;5.70;;;12.40;97.20;;;;;;5073872;28;20094;-45
2024/02/28 03:39:20;;;;;;;6.47;5.40;;;12.40;97.20;;;;;;5073744;28;20059;-45
2024/02/28 03:41:46;;;;;;;7.00;5.47;;;12.40;97.20;;;;;;5073891;28;20021;-45
2024/02/28 03:44:12;;;;;;;5.90;5.03;;;12.30;97.20;;;;;;5073799;28;20032;-44
2024/02/28 03:46:37;;;;;;;7.82;6.20;;;12.30;97.20;;;;;;5073688;28;20039;-43
2024/02/28 03:49:03;;;;;;;6.72;5.43;;;12.30;97.30;;;;;;5073316;28;20341;-45
2024/02/28 03:51:32;;;;;;;9.10;5.97;;;12.40;97.70;;;;;;5074052;28;20648;-45
2024/02/28 03:53:57;;;;;;;7.38;5.57;;;12.30;97.30;;;;;;5073760;28;20436;-43
2024/02/28 03:56:24;;;;;;;7.00;5.05;;;12.30;97.30;;;;;;5073841;28;20024;-45
2024/02/28 03:58:50;;;;;;;7.10;4.82;;;12.30;97.30;;;;;;5073540;28;20029;-44
2024/02/28 04:01:16;;;;;;;6.72;5.40;;;12.30;97.40;;;;;;5072066;28;20032;-45
2024/02/28 04:03:42;;;;;;;8.20;5.57;;;12.30;97.40;;;;;;5073734;28;20386;-45
2024/02/28 04:06:07;;;;;;;7.20;5.20;;;12.30;97.40;;;;;;5073516;28;20099;-45
2024/02/28 04:08:33;;;;;;;11.75;6.10;;;12.30;97.40;;;;;;5072662;28;20436;-45
2024/02/28 04:10:59;;;;;;;8.18;6.00;;;12.30;97.40;;;;;;5073221;28;20028;-45
2024/02/28 04:13:24;;;;;;;7.28;5.63;;;12.30;97.50;;;;;;5073222;28;20074;-44
2024/02/28 04:15:50;;;;;;;7.25;5.47;;;12.20;97.50;;;;;;5073239;28;20398;-45
2024/02/28 04:18:15;;;;;;;7.35;5.68;;;12.20;97.50;;;;;;5072951;28;20070;-45
2024/02/28 04:20:41;;;;;;;6.45;5.03;;;12.20;97.50;;;;;;5073042;28;20458;-45
2024/02/28 04:23:06;;;;;;;7.63;5.85;;;12.20;97.50;;;;;;5073189;28;20016;-45
2024/02/28 04:25:32;;;;;;;8.02;5.53;;;12.20;97.50;;;;;;5073297;28;20024;-45
2024/02/28 04:27:58;;;;;;;7.20;5.65;;;12.20;97.60;;;;;;5072438;28;20372;-45
2024/02/28 04:30:23;;;;;;;6.75;5.50;;;12.20;97.60;;;;;;5072798;28;20025;-45
2024/02/28 04:32:49;;;;;;;6.90;5.30;;;12.20;97.60;;;;;;5072983;28;20103;-45
2024/02/28 04:35:18;;;;;;;8.13;6.15;;;12.20;97.60;;;;;;5072817;28;20458;-45
2024/02/28 04:37:45;;;;;;;6.20;5.00;;;12.10;97.60;;;;;;5072666;28;20099;-45
2024/02/28 04:40:11;;;;;;;8.43;5.75;;;12.10;97.90;;;;;;5072620;28;20024;-45
2024/02/28 04:42:37;;;;;;;10.10;6.28;;;12.10;97.60;;;;;;5072700;28;20017;-45
2024/02/28 04:45:04;;;;;;;7.57;6.00;;;12.10;97.70;;;;;;5072784;28;20032;-46
2024/02/28 04:47:30;;;;;;;9.25;5.82;;;12.10;97.70;;;;;;5072439;28;20099;-45
2024/02/28 04:49:56;;;;;;;7.25;5.53;;;12.10;97.70;;;;;;5072412;28;20410;-45
2024/02/28 04:52:22;;;;;;;7.03;5.55;;;12.10;97.70;;;;;;5072647;28;20031;-45
2024/02/28 04:54:47;;;;;;;7.68;5.95;;;12.10;97.70;;;;;;5072440;28;20032;-45
2024/02/28 04:57:13;;;;;;;8.18;5.90;;;12.10;97.70;;;;;;5072267;28;20028;-45
2024/02/28 04:59:41;;;;;;;7.05;5.55;;;12.10;97.70;;;;;;5072143;28;20024;-45
2024/02/28 05:02:06;;;;;;;7.88;6.05;;;12.10;98.10;;;;;;5072517;28;20107;-45
2024/02/28 05:04:32;;;;;;;7.50;5.85;;;12.10;97.80;;;;;;5072329;28;20501;-45
2024/02/28 05:06:57;;;;;;;6.78;5.47;;;12.10;97.80;;;;;;5072055;28;20031;-45
2024/02/28 05:09:23;;;;;;;8.13;5.60;;;12.10;97.80;;;;;;5071951;28;20025;-45
2024/02/28 05:11:49;;;;;;;7.55;5.85;;;12.00;97.80;;;;;;5072131;28;20028;-45
2024/02/28 05:14:15;;;;;;;8.40;6.25;;;12.00;97.80;;;;;;5072083;28;20386;-45
2024/02/28 05:16:40;;;;;;;9.30;6.30;;;12.10;97.80;;;;;;5072015;28;20103;-45
2024/02/28 05:19:06;;;;;;;8.18;5.60;;;12.10;97.80;;;;;;5071409;28;20105;-44
2024/02/28 05:21:31;;;;;;;7.07;5.85;;;12.00;97.80;;;;;;5071416;28;20053;-45
2024/02/28 05:23:57;;;;;;;8.45;6.07;;;12.00;97.80;;;;;;5071927;28;20033;-44
2024/02/28 05:26:23;;;;;;;8.15;5.90;;;12.00;97.80;;;;;;5086813;28;20032;-44
2024/02/28 05:28:48;;;;;;;7.97;5.90;;;12.00;97.90;;;;;;5071836;28;20029;-43
2024/02/28 05:31:25;;;;;;;8.18;5.97;;;12.00;98.20;;;;;;5071802;28;20028;-44
2024/02/28 05:33:56;;;;;;;8.40;5.95;;;12.00;97.90;;;;;;5071701;28;20031;-44
2024/02/28 05:36:26;;;;;;;6.30;5.28;;;12.00;97.90;;;;;;5071501;28;20022;-45
2024/02/28 05:38:53;;;;;;;8.45;5.88;;;12.00;97.90;;;;;;5071535;28;20024;-44
2024/02/28 05:41:19;;;;;;;8.50;5.50;;;12.00;97.90;;;;;;5071388;28;20028;-44
2024/02/28 05:43:45;;;;;;;8.15;5.72;;;12.00;97.90;;;;;;5071721;28;20433;-43
2024/02/28 05:46:11;;;;;;;11.48;8.73;;;12.00;97.90;;;;;;5070132;28;20139;-44
2024/02/28 05:48:37;;;;;;;13.77;9.27;;;12.00;97.60;;;;;;5071173;28;20029;-43
2024/02/28 05:51:03;;;;;;;15.15;10.40;;;11.90;97.30;;;;;;5071261;28;20036;-42
2024/02/28 05:53:35;;;;;;;14.25;10.63;;;11.90;97.20;;;;;;5071257;28;20119;-45
2024/02/28 05:56:04;;;;;;;13.55;10.65;;;11.80;97.30;;;;;;5071387;28;20024;-43
2024/02/28 05:58:29;;;;;;;16.05;10.88;;;11.80;97.50;;;;;;5070078;28;20028;-44
2024/02/28 06:00:56;;;;;;;13.30;10.18;;;11.90;97.30;;;;;;5071089;28;20070;-43
2024/02/28 06:03:22;;;;;;;13.82;10.07;;;11.90;97.60;;;;;;5071196;28;20024;-44
2024/02/28 06:05:48;;;;;;;13.68;10.07;;;11.80;97.30;;;;;;5071191;28;20536;-44
2024/02/28 06:08:13;;;;;;;14.93;10.68;;;11.90;97.40;;;;;;5071146;28;20013;-45
2024/02/28 06:10:39;;;;;;;13.77;10.52;;;11.80;97.30;;;;;;5070938;28;20021;-42
2024/02/28 06:13:05;;;;;;;13.32;9.55;;;11.80;97.30;;;;;;5071954;28;20123;-44
2024/02/28 06:15:30;;;;;;;15.73;10.82;;;11.80;97.40;;;;;;5071943;28;20082;-42
2024/02/28 06:18:00;;;;;;;13.60;10.02;;;11.80;97.40;;;;;;5071480;28;20025;-43
2024/02/28 06:20:26;;;;;;;14.05;10.05;;;11.80;97.40;;;;;;5071207;28;20066;-44
2024/02/28 06:22:52;;;;;;;14.10;9.77;;;11.80;97.50;;;;;;5071172;28;20109;-42
2024/02/28 06:25:19;;;;;;;13.10;10.23;;;11.80;97.50;;;;;;5071042;28;20484;-42
2024/02/28 06:27:45;;;;;;;12.80;9.65;;;11.80;97.60;;;;;;5070114;28;20393;-43
2024/02/28 06:30:16;;;;;;;13.95;9.90;;;11.80;97.70;;;;;;5070819;28;20105;-42
2024/02/28 06:32:42;;;;;;;14.32;10.07;;;11.80;97.70;;;;;;5070855;28;20024;-42
2024/02/28 06:35:08;;;;;;;13.13;9.88;;;11.80;97.70;;;;;;5070919;28;20032;-45
2024/02/28 06:37:35;;;;;;;13.55;9.50;;;11.80;97.70;;;;;;5070644;28;20020;-45
2024/02/28 06:40:02;;;;;;;13.30;10.13;;;11.90;97.80;;;;;;5070850;28;20100;-45
2024/02/28 06:42:28;;;;;;;11.52;9.30;;;11.90;97.80;;;;;;5069530;28;20497;-45
2024/02/28 06:44:54;;;;;;;15.65;9.40;;;11.90;97.80;;;;;;5071053;28;20032;-43
2024/02/28 06:47:19;;;;;;;12.55;8.68;;;11.90;97.90;;;;;;5070722;28;20409;-45
2024/02/28 06:49:45;;;;;;;11.20;8.05;;;11.90;98.00;;;;;;5070857;28;20691;-45
2024/02/28 06:52:11;;;;;;;12.57;8.55;;;11.90;98.10;;;;;;5070825;28;20033;-42
2024/02/28 06:54:37;;;;;;;11.88;8.65;;;12.00;98.20;;;;;;5070698;28;20033;-43
2024/02/28 06:57:03;;;;;;;10.65;8.40;;;12.00;98.20;;;;;;5070567;28;20044;-42
2024/02/28 06:59:28;;;;;;;11.60;8.73;;;12.10;98.20;;;;;;5070570;28;20360;-41
2024/02/28 07:01:54;;;;;;;12.32;8.77;;;12.10;98.20;;;;;;5070736;28;20025;-45
2024/02/28 07:04:20;;;;;;;11.27;8.60;;;12.20;98.20;;;;;;5070643;28;20036;-43
2024/02/28 07:06:45;;;;;;;11.52;9.15;;;12.30;98.10;;;;;;5070641;28;20335;-44
2024/02/28 07:09:12;;;;;;;9.70;7.82;;;12.30;98.00;;;;;;5070367;28;20032;-44
2024/02/28 07:11:38;;;;;;;11.25;8.40;;;12.50;98.00;;;;;;5070565;28;20021;-44
2024/02/28 07:14:04;;;;;;;10.75;8.45;;;12.50;97.80;;;;;;5070513;28;20082;-42
2024/02/28 07:16:32;;;;;;;11.65;8.60;;;12.60;97.70;;;;;;5070890;28;20028;-42
2024/02/28 07:18:58;;;;;;;11.02;8.13;;;12.70;97.60;;;;;;5070344;28;20528;-40
2024/02/28 07:21:23;;;;;;;9.95;7.75;;;12.80;97.50;;;;;;5070931;28;20112;-44
2024/02/28 07:23:49;;;;;;;9.45;7.78;;;12.90;97.40;;;;;;5070630;28;20028;-44
2024/02/28 07:26:15;;;;;;;10.32;8.00;;;12.90;97.20;;;;;;5070927;28;20035;-45
2024/02/28 07:28:41;;;;;;;10.93;8.02;;;13.00;97.10;;;;;;5070316;28;20570;-44
2024/02/28 07:31:07;;;;;;;9.85;7.53;;;13.10;97.00;;;;;;5070165;28;20032;-44
2024/02/28 07:33:32;;;;;;;10.60;7.53;;;13.20;96.90;;;;;;5070295;28;20028;-44
2024/02/28 07:36:00;;;;;;;11.90;8.20;;;13.30;96.80;;;;;;5070294;28;20048;-44
2024/02/28 07:38:27;;;;;;;12.40;9.38;;;13.40;96.70;;;;;;5070062;28;20025;-44
2024/02/28 07:40:53;;;;;;;14.20;10.40;;;13.40;96.30;;;;;;5070070;28;20025;-45
2024/02/28 07:43:19;;;;;;;13.07;9.10;;;13.50;95.80;;;;;;5071503;28;20391;-43
2024/02/28 07:45:44;;;;;;;15.80;9.63;;;13.50;95.60;;;;;;5074023;28;20021;-44
2024/02/28 07:48:10;;;;;;;13.15;10.13;;;13.60;95.50;;;;;;5073686;28;20031;-45
2024/02/28 07:50:37;;;;;;;13.95;10.15;;;13.70;95.40;;;;;;5073710;28;20104;-44
2024/02/28 07:53:02;;;;;;;14.48;8.98;;;13.70;95.30;;;;;;5073761;28;20111;-45
2024/02/28 07:55:28;;;;;;;14.82;9.50;;;13.80;95.20;;;;;;5073424;28;20107;-45
2024/02/28 07:57:54;;;;;;;13.82;10.38;;;13.90;95.10;;;;;;5073494;28;20497;-45
2024/02/28 08:00:20;;;;;;;12.20;8.98;;;13.90;95.00;;;;;;5073441;28;20075;-45
2024/02/28 08:02:46;;;;;;;14.50;9.45;;;14.00;94.90;;;;;;5073544;28;20429;-45
2024/02/28 08:05:13;;;;;;;12.00;8.70;;;14.00;94.80;;;;;;5073522;28;20082;-45
2024/02/28 08:07:38;;;;;;;12.73;9.00;;;14.10;94.80;;;;;;5073197;28;20036;-45
2024/02/28 08:10:09;;;;;;;12.70;9.18;;;14.20;94.70;;;;;;5073091;28;20074;-45
2024/02/28 08:12:35;;;;;;;10.48;8.07;;;14.20;94.60;;;;;;5073638;28;20032;-45
2024/02/28 08:15:01;;;;;;;10.57;7.88;;;14.30;94.60;;;;;;5073440;28;20436;-45
2024/02/28 08:17:28;;;;;;;12.15;8.38;;;14.30;94.50;;;;;;5073159;28;20066;-46
2024/02/28 08:19:54;;;;;;;13.05;8.98;;;14.40;94.50;;;;;;5073126;28;20042;-45
2024/02/28 08:22:20;;;;;;;14.10;10.43;;;14.40;94.20;;;;;;5073460;28;20023;-44
2024/02/28 08:24:45;;;;;;;12.60;9.38;;;14.50;93.70;;;;;;5072555;28;20021;-45
2024/02/28 08:27:11;;;;;;;13.48;9.05;;;14.50;93.50;;;;;;5072134;28;20509;-45
2024/02/28 08:29:43;;;;;;;11.25;8.45;;;14.60;93.50;;;;;;5072829;28;20489;-44
2024/02/28 08:32:10;;;;;;;12.68;8.60;;;14.60;93.40;;;;;;5073761;28;20393;-45
2024/02/28 08:34:36;;;;;;;10.25;8.48;;;14.60;93.40;;;;;;5072940;28;20025;-44
2024/02/28 08:37:02;;;;;;;11.30;8.68;;;14.70;93.30;;;;;;5073144;28;20031;-45
2024/02/28 08:39:28;;;;;;;11.70;8.43;;;14.80;93.30;;;;;;5073064;28;20485;-45
2024/02/28 08:41:53;;;;;;;12.80;8.48;;;14.80;93.30;;;;;;5072895;28;20025;-44
2024/02/28 08:44:20;;;;;;;11.80;8.02;;;14.80;93.20;;;;;;5072827;28;20021;-44
2024/02/28 08:46:50;;;;;;;12.93;8.30;;;14.90;93.20;;;;;;5072629;28;20025;-45
2024/02/28 08:49:16;;;;;;;10.20;7.72;;;14.90;93.20;;;;;;5072447;28;20021;-45
2024/02/28 08:51:42;;;;;;;10.70;8.00;;;14.90;93.10;;;;;;5072934;28;20115;-45
2024/02/28 08:54:08;;;;;;;12.85;8.20;;;15.00;93.10;;;;;;5072424;28;20108;-45
2024/02/28 08:56:34;;;;;;;9.48;7.22;;;15.00;93.10;;;;;;5072461;28;20033;-45
2024/02/28 08:58:59;;;;;;;11.93;7.68;;;15.10;93.10;;;;;;5072617;28;20467;-44
2024/02/28 09:01:25;;;;;;;10.07;7.60;;;15.10;93.00;;;;;;5072598;28;20082;-45
2024/02/28 09:03:51;;;;;;;10.13;7.30;;;15.10;92.90;;;;;;5072375;28;20035;-45
2024/02/28 09:06:16;;;;;;;10.60;7.63;;;15.20;92.90;;;;;;5072137;28;20111;-44
2024/02/28 09:08:42;;;;;;;10.75;8.15;;;15.20;92.90;;;;;;5072067;28;20085;-44
2024/02/28 09:11:08;;;;;;;10.75;7.35;;;15.20;92.80;;;;;;5072437;28;20020;-45
2024/02/28 09:13:35;;;;;;;10.18;7.70;;;15.30;92.80;;;;;;5072119;28;20024;-45
2024/02/28 09:16:01;;;;;;;10.57;7.35;;;15.30;92.70;;;;;;5072154;28;20420;-44
2024/02/28 09:18:27;;;;;;;10.35;7.20;;;15.30;92.70;;;;;;5071910;28;20463;-45
2024/02/28 09:20:53;;;;;;;8.68;7.05;;;15.40;92.70;;;;;;5071785;28;20040;-44
2024/02/28 09:23:18;;;;;;;9.57;7.00;;;15.40;92.60;;;;;;5072026;28;20016;-45
2024/02/28 09:25:44;;;;;;;9.48;6.60;;;15.40;92.60;;;;;;5071983;28;20527;-44
2024/02/28 09:28:12;;;;;;;9.82;7.00;;;15.40;92.50;;;;;;5072067;28;20043;-45
2024/02/28 09:30:38;;;;;;;7.88;6.25;;;15.50;92.50;;;;;;5071586;28;20028;-44
2024/02/28 09:33:04;;;;;;;10.38;7.13;;;15.50;92.50;;;;;;5071784;28;20023;-44
2024/02/28 09:35:29;;;;;;;8.88;6.88;;;15.50;92.40;;;;;;5071451;28;20027;-44
2024/02/28 09:37:55;;;;;;;9.00;6.50;;;15.50;92.40;;;;;;5071473;28;20487;-44
2024/02/28 09:40:21;;;;;;;8.00;6.15;;;15.60;92.40;;;;;;5071661;28;20094;-45
2024/02/28 09:43:00;;;;;;;8.88;6.82;;;15.60;92.30;;;;;;5071615;28;20363;-45
2024/02/28 09:45:26;;;;;;;7.75;6.22;;;15.60;92.30;;;;;;5071540;28;20376;-45
2024/02/28 09:47:51;;;;;;;7.95;6.38;;;15.60;92.30;;;;;;5071292;28;20029;-45
2024/02/28 09:50:19;;;;;;;8.23;6.60;;;15.70;92.30;;;;;;5071341;28;20410;-44
2024/02/28 09:52:45;;;;;;;8.32;6.43;;;15.70;92.20;;;;;;5071519;28;20020;-44
2024/02/28 09:55:10;;;;;;;7.40;6.10;;;15.70;92.20;;;;;;5071331;28;20040;-44
2024/02/28 09:57:37;;;;;;;8.45;6.20;;;15.70;92.20;;;;;;5071154;28;20043;-44
2024/02/28 10:00:04;;;;;;;8.02;5.78;;;15.70;92.20;;;;;;5071160;28;20024;-44
2024/02/28 10:02:30;;;;;;;7.25;5.47;;;15.80;92.10;;;;;;5071478;28;20467;-44
2024/02/28 10:04:58;;;;;;;7.53;5.60;;;15.80;92.10;;;;;;5071339;28;20020;-45
2024/02/28 10:07:23;;;;;;;7.45;6.00;;;15.80;92.10;;;;;;5071144;28;20478;-45
2024/02/28 10:09:49;;;;;;;7.18;5.47;;;15.80;92.00;;;;;;5071068;28;20031;-44
2024/02/28 10:12:15;;;;;;;7.18;6.00;;;15.90;92.00;;;;;;5071358;28;20052;-44
2024/02/28 10:14:40;;;;;;;7.47;5.50;;;15.90;92.00;;;;;;5071060;28;20131;-45
2024/02/28 10:17:08;;;;;;;7.03;5.40;;;15.90;91.90;;;;;;5071000;28;20621;-45
2024/02/28 10:19:33;;;;;;;6.78;5.40;;;15.90;91.90;;;;;;5070840;28;20021;-45
2024/02/28 10:21:59;;;;;;;6.70;5.32;;;15.90;91.80;;;;;;5071114;28;20032;-45
2024/02/28 10:24:25;;;;;;;7.00;5.45;;;16.00;91.90;;;;;;5071139;28;20108;-44
2024/02/28 10:26:56;;;;;;;6.05;5.15;;;16.00;91.90;;;;;;5070113;28;20444;-45
2024/02/28 10:29:24;;;;;;;7.47;5.38;;;16.00;91.80;;;;;;5070836;28;20043;-45
2024/02/28 10:31:55;;;;;;;7.40;5.30;;;16.00;91.80;;;;;;5070971;28;20021;-45
2024/02/28 10:34:21;;;;;;;6.68;5.53;;;16.00;91.80;;;;;;5070110;28;20033;-45
2024/02/28 10:36:47;;;;;;;8.73;5.20;;;16.00;91.70;;;;;;5069103;28;20028;-43
2024/02/28 10:39:14;;;;;;;7.03;5.35;;;16.00;91.70;;;;;;5070659;28;20489;-45
2024/02/28 10:41:40;;;;;;;6.47;4.55;;;16.10;91.70;;;;;;5070877;28;20471;-45
2024/02/28 10:44:05;;;;;;;7.57;5.38;;;16.10;91.70;;;;;;5070844;28;20533;-39
2024/02/28 10:46:31;;;;;;;6.85;4.97;;;16.10;91.60;;;;;;5070627;28;20116;-44
2024/02/28 10:48:57;;;;;;;7.93;5.22;;;16.20;91.90;;;;;;5070559;28;20752;-44
2024/02/28 10:51:27;;;;;;;6.22;5.22;;;16.20;91.60;;;;;;5070828;28;20037;-45
2024/02/28 10:54:13;;;;;;;7.22;5.18;;;16.20;91.60;;;;;;5070775;28;20032;-44
2024/02/28 10:56:39;;;;;;;5.43;4.70;;;16.20;91.50;;;;;;5071281;28;20025;-44
2024/02/28 10:59:10;;;;;;;6.10;4.93;;;16.20;91.50;;;;;;5070256;28;20048;-44
2024/02/28 11:01:43;;;;;;;5.20;4.43;;;16.30;91.50;;;;;;5070643;28;20541;-43
2024/02/28 11:04:13;;;;;;;5.38;4.20;;;16.20;91.40;;;;;;5070707;28;20470;-44
2024/02/28 11:06:50;;;;;;;5.55;4.45;;;16.30;91.40;;;;;;5070552;28;20533;-44
2024/02/28 11:09:23;;;;;;;6.38;4.35;;;16.30;91.50;;;;;;5070349;28;20087;-44
2024/02/28 11:11:52;;;;;;;6.78;4.50;;;16.40;91.50;;;;;;5071193;28;20028;-44
2024/02/28 11:14:22;;;;;;;5.78;4.30;;;16.30;91.40;;;;;;5070540;28;20032;-40
2024/02/28 11:16:58;;;;;;;5.50;4.30;;;16.40;91.40;;;;;;5070443;28;20363;-41
2024/02/28 11:19:24;;;;;;;5.50;4.38;;;16.40;91.30;;;;;;5073239;28;20032;-43
2024/02/28 11:21:57;;;;;;;5.82;4.10;;;16.40;91.30;;;;;;5074398;28;20032;-44
2024/02/28 11:24:34;;;;;;;5.65;4.05;;;16.40;91.30;;;;;;5074346;28;20024;-45
2024/02/28 11:27:00;;;;;;;5.30;4.40;;;16.50;91.20;;;;;;5073787;28;20035;-45
2024/02/28 11:29:28;;;;;;;5.43;4.32;;;16.50;91.20;;;;;;5073989;28;20124;-45
2024/02/28 11:31:55;;;;;;;5.25;3.88;;;16.50;91.20;;;;;;5074106;28;20513;-45
2024/02/28 11:34:21;;;;;;;5.13;4.05;;;16.50;91.10;;;;;;5073967;28;20479;-45
2024/02/28 11:36:50;;;;;;;5.10;4.13;;;16.50;91.40;;;;;;5073869;28;20031;-42
2024/02/28 11:39:17;;;;;;;5.60;4.20;;;16.50;91.10;;;;;;5073797;28;20020;-42
2024/02/28 11:41:46;;;;;;;6.97;4.38;;;16.50;91.10;;;;;;5073909;28;20028;-44
2024/02/28 11:44:15;;;;;;;5.35;4.25;;;16.50;91.00;;;;;;5073903;28;20032;-45
2024/02/28 11:46:48;;;;;;;5.57;4.50;;;16.60;91.00;;;;;;5073710;28;20044;-44
2024/02/28 11:49:14;;;;;;;5.57;4.22;;;16.60;91.00;;;;;;5073558;28;20505;-45
2024/02/28 11:51:41;;;;;;;5.35;3.88;;;16.60;91.00;;;;;;5074039;28;20551;-45
2024/02/28 11:54:08;;;;;;;5.43;4.15;;;16.60;91.00;;;;;;5073745;28;20029;-45
2024/02/28 11:56:34;;;;;;;5.45;4.25;;;16.60;90.90;;;;;;5074149;28;20425;-45
2024/02/28 11:59:00;;;;;;;4.88;4.03;;;16.60;90.90;;;;;;5073537;28;20025;-45
2024/02/28 12:01:36;;;;;;;5.30;3.97;;;16.70;90.90;;;;;;5073880;28;20035;-45
2024/02/28 12:04:10;;;;;;;5.00;4.18;;;16.60;90.90;;;;;;5073743;28;20032;-44
2024/02/28 12:06:36;;;;;;;4.40;4.00;;;16.70;90.90;;;;;;5073531;28;20027;-44
2024/02/28 12:09:03;;;;;;;5.60;4.13;;;16.60;90.80;;;;;;5073061;28;20760;-45
2024/02/28 12:11:30;;;;;;;5.35;4.07;;;16.60;90.80;;;;;;5073423;28;20060;-45
2024/02/28 12:13:56;;;;;;;4.65;3.67;;;16.60;90.80;;;;;;5073291;28;20402;-45
2024/02/28 12:16:25;;;;;;;5.85;4.30;;;16.70;90.80;;;;;;5071881;28;20422;-44
2024/02/28 12:18:52;;;;;;;4.57;4.18;;;16.70;90.80;;;;;;5073273;28;20104;-42
2024/02/28 12:21:18;;;;;;;5.05;3.83;;;16.70;90.80;;;;;;5073218;28;20510;-45
2024/02/28 12:23:44;;;;;;;4.88;4.13;;;16.70;91.10;;;;;;5073247;28;20028;-45
2024/02/28 12:26:09;;;;;;;4.50;3.72;;;16.70;90.80;;;;;;5073552;28;20032;-42
2024/02/28 12:28:35;;;;;;;5.20;4.15;;;16.70;90.70;;;;;;5072490;28;20186;-42
2024/02/28 12:31:00;;;;;;;5.95;4.30;;;16.70;90.70;;;;;;5073126;28;20398;-43
2024/02/28 12:33:26;;;;;;;5.10;3.85;;;16.70;90.70;;;;;;5073032;28;20074;-44
2024/02/28 12:35:52;;;;;;;4.43;3.60;;;16.70;90.70;;;;;;5072886;28;20043;-44
2024/02/28 12:38:18;;;;;;;4.80;4.22;;;16.70;90.70;;;;;;5073222;28;20382;-45